Página principal
METAR-TAF:

METAR-TAF

Aeroportos :

Navoiy, Uzbequistão

latitude: 40-07-04N, longitude: 065-10-30E, altura: 348 m

Observação actual do tempo

O boletim foi feito há 38 minutos, às 00:00 UTC
Vento 10 kt de este
Temperatura 1°C
Humidade 75%
Pressão 1026 hPa
Visibilidade 10 km ou mais

METAR: UTSA 180000Z 09010KT 9999 NSC 01/M03 Q1026 R07/CLRD70 NOSIG

Hora: 05:38 (00:38 UTC)

Previsão

O boletim foi feito há 1 hora e 37 minutos, às 23:01 UTC
Previsão válida de 18 às 00 UTC a 18 às 24 UTC
Vento 3 kt com direcção variável
Visibilidade: 7000 m
Temporariamente
de 18 às 02 UTC a 18 às 12 UTC
Vento 12 kt de este
Nuvens dispersasa uma altura de 3300 ft

TAF: UTSA 172301Z 1800/1824 VRB03KT 7000 NSC TEMPO 1802/1812 08012KT SCT033

Observações e previsões do tempo de mais de 4000 aeroportos (mensagens METAR e TAF).

As estações disponíveis são os pontos amarelos e vermelhos sobre o mapa.

Mova o rato sobre o mapa para ver o nome da estação.

Depois clique no ponto para visualizar as observações e previsões meteorológicas.

Para alterar o mapa : clique nos botões verdes com uma cruz preta para aumentar o zoom; no botão verde com uma pitada de zoom; ou nas setas verdes para mapas adjacentes.


METAR-TAF: